createdAt,value
2023-03-08T00:00:18.281Z,25.82
2023-03-08T00:02:53.700Z,25.20
2023-03-08T00:05:26.814Z,24.57
2023-03-08T00:07:59.229Z,23.98
2023-03-08T00:10:31.781Z,24.90
2023-03-08T00:13:05.611Z,25.62
2023-03-08T00:15:41.478Z,24.87
2023-03-08T00:18:15.493Z,25.02
2023-03-08T00:20:48.104Z,22.87
2023-03-08T00:23:20.544Z,24.02
2023-03-08T00:25:56.347Z,20.82
2023-03-08T00:28:28.969Z,22.62
2023-03-08T00:31:05.233Z,22.07
2023-03-08T00:33:38.869Z,23.70
2023-03-08T00:36:19.451Z,21.80
2023-03-08T00:38:52.812Z,23.07
2023-03-08T00:41:25.538Z,23.50
2023-03-08T00:43:57.833Z,23.05
2023-03-08T00:46:32.255Z,22.93
2023-03-08T00:49:04.993Z,23.50
2023-03-08T00:51:37.824Z,22.55
2023-03-08T00:54:11.279Z,23.98
2023-03-08T00:56:44.201Z,23.55
2023-03-08T00:59:16.734Z,25.65
2023-03-08T01:01:49.315Z,22.85
2023-03-08T01:04:23.174Z,24.60
2023-03-08T01:06:56.198Z,24.15
2023-03-08T01:09:29.304Z,23.02
2023-03-08T01:12:01.732Z,23.57
2023-03-08T01:14:35.495Z,21.70
2023-03-08T01:17:07.830Z,23.95
2023-03-08T01:19:40.364Z,24.12
2023-03-08T01:22:13.007Z,24.00
2023-03-08T01:24:49.764Z,22.65
2023-03-08T01:27:23.899Z,23.45
2023-03-08T01:29:56.569Z,23.05
2023-03-08T01:32:29.497Z,24.80
2023-03-08T01:35:04.748Z,22.98
2023-03-08T01:37:37.158Z,21.90
2023-03-08T01:40:11.576Z,22.60
2023-03-08T01:42:44.077Z,22.15
2023-03-08T01:46:00.990Z,22.45
2023-03-08T01:48:41.659Z,24.77
2023-03-08T01:51:20.675Z,22.37
2023-03-08T01:53:53.383Z,22.77
2023-03-08T01:56:25.971Z,23.42
2023-03-08T01:59:00.153Z,23.55
2023-03-08T02:01:33.613Z,23.55
2023-03-08T02:04:06.565Z,23.38
2023-03-08T02:06:40.015Z,22.17
2023-03-08T02:09:12.714Z,22.45
2023-03-08T02:11:45.214Z,19.35
2023-03-08T02:14:17.987Z,20.23
2023-03-08T02:16:52.134Z,21.82
2023-03-08T02:19:32.706Z,22.80
2023-03-08T02:22:16.144Z,23.52
2023-03-08T02:27:25.365Z,20.97
2023-03-08T02:29:58.352Z,20.90
2023-03-08T02:32:31.407Z,21.17
2023-03-08T02:35:06.198Z,21.60
2023-03-08T02:37:39.092Z,22.17
2023-03-08T02:40:13.385Z,20.92
2023-03-08T02:45:17.660Z,20.23
2023-03-08T02:47:50.673Z,20.77
2023-03-08T02:50:23.489Z,22.20
2023-03-08T02:52:56.032Z,22.15
2023-03-08T02:55:30.623Z,23.62
2023-03-08T02:58:06.404Z,22.10
2023-03-08T03:00:39.393Z,22.77
2023-03-08T03:03:12.741Z,23.90
2023-03-08T03:05:45.821Z,24.47
2023-03-08T03:08:24.041Z,25.52
2023-03-08T03:10:59.274Z,24.45
2023-03-08T03:13:33.121Z,26.30
2023-03-08T03:16:14.378Z,26.82
2023-03-08T03:18:46.920Z,26.25
2023-03-08T03:21:20.113Z,26.65
2023-03-08T03:23:53.075Z,26.37
2023-03-08T03:26:26.982Z,27.13
2023-03-08T03:29:00.489Z,24.55
2023-03-08T03:31:35.770Z,22.82
2023-03-08T03:34:09.477Z,23.87
2023-03-08T03:36:43.975Z,23.62
2023-03-08T03:39:16.500Z,23.35
2023-03-08T03:41:49.873Z,23.98
2023-03-08T03:44:22.394Z,23.57
2023-03-08T03:46:54.924Z,22.62
2023-03-08T03:52:01.514Z,21.68
2023-03-08T03:54:36.098Z,22.22
2023-03-08T03:57:08.421Z,22.10
2023-03-08T03:59:44.483Z,22.45
2023-03-08T04:02:18.037Z,23.95
2023-03-08T04:07:25.794Z,23.00
2023-03-08T04:10:03.281Z,21.42
2023-03-08T04:12:36.680Z,21.63
2023-03-08T04:15:10.542Z,21.70
2023-03-08T04:17:43.599Z,24.35
2023-03-08T04:20:17.188Z,23.73
2023-03-08T04:22:52.350Z,23.50
2023-03-08T04:25:27.022Z,25.08
2023-03-08T04:28:02.274Z,22.17
2023-03-08T04:30:37.138Z,24.20
2023-03-08T04:33:10.567Z,23.05
2023-03-08T04:35:45.724Z,24.65
2023-03-08T04:38:19.079Z,22.10
2023-03-08T04:41:02.809Z,21.37
2023-03-08T04:43:37.262Z,21.25
2023-03-08T04:46:10.144Z,21.20
2023-03-08T04:48:43.972Z,21.95
2023-03-08T04:51:18.138Z,21.50
2023-03-08T04:53:51.353Z,21.60
2023-03-08T04:56:24.904Z,21.13
2023-03-08T04:58:58.691Z,21.40
2023-03-08T05:01:32.370Z,22.02
2023-03-08T05:04:05.029Z,21.42
2023-03-08T05:06:39.555Z,22.02
2023-03-08T05:09:13.874Z,21.48
2023-03-08T05:11:46.795Z,22.07
2023-03-08T05:14:21.975Z,22.00
2023-03-08T05:17:00.461Z,21.75
2023-03-08T05:19:34.279Z,21.85
2023-03-08T05:22:07.131Z,21.27
2023-03-08T05:24:42.374Z,19.87
2023-03-08T05:27:37.266Z,20.68
2023-03-08T05:30:11.251Z,20.52
2023-03-08T05:32:44.878Z,20.45
2023-03-08T05:35:17.513Z,19.85
2023-03-08T05:37:50.735Z,19.80
2023-03-08T05:40:23.871Z,21.95
2023-03-08T05:42:56.891Z,21.15
2023-03-08T05:45:29.691Z,20.62
2023-03-08T05:48:02.692Z,19.45
2023-03-08T05:53:11.268Z,19.35
2023-03-08T05:55:44.086Z,18.85
2023-03-08T05:58:17.588Z,21.47
2023-03-08T06:00:50.161Z,21.52
2023-03-08T06:03:22.808Z,21.65
2023-03-08T06:05:55.269Z,21.52
2023-03-08T06:08:28.703Z,21.85
2023-03-08T06:11:01.809Z,20.23
2023-03-08T06:13:35.185Z,21.85
2023-03-08T06:16:08.071Z,20.72
2023-03-08T06:18:41.360Z,20.70
2023-03-08T06:21:17.289Z,19.80
2023-03-08T06:23:51.529Z,19.65
2023-03-08T06:26:24.195Z,20.50
2023-03-08T06:28:57.110Z,20.90
2023-03-08T06:31:31.158Z,21.17
2023-03-08T06:34:04.762Z,21.07
2023-03-08T06:36:38.174Z,19.62
2023-03-08T06:39:10.606Z,20.57
2023-03-08T06:41:43.996Z,22.07
2023-03-08T06:44:18.114Z,21.55
2023-03-08T06:46:50.629Z,21.20
2023-03-08T06:49:23.674Z,19.92
2023-03-08T06:51:56.416Z,22.30
2023-03-08T06:54:29.255Z,20.68
2023-03-08T06:57:01.883Z,20.92
2023-03-08T06:59:34.381Z,21.80
2023-03-08T07:02:07.091Z,21.30
2023-03-08T07:04:39.626Z,20.90
2023-03-08T07:07:12.987Z,21.80
2023-03-08T07:09:46.790Z,19.95
2023-03-08T07:12:20.324Z,20.20
2023-03-08T07:14:55.268Z,20.10
2023-03-08T07:17:27.568Z,20.00
2023-03-08T07:19:59.931Z,21.20
2023-03-08T07:22:33.156Z,20.72
2023-03-08T07:25:07.261Z,21.45
2023-03-08T07:27:40.087Z,20.80
2023-03-08T07:30:34.627Z,20.80
2023-03-08T07:33:07.681Z,20.60
2023-03-08T07:35:40.473Z,20.88
2023-03-08T07:38:37.716Z,20.20
2023-03-08T07:41:10.706Z,21.85
2023-03-08T07:43:45.042Z,22.73
2023-03-08T07:46:25.526Z,21.65
2023-03-08T07:48:58.296Z,21.85
2023-03-08T07:51:30.882Z,22.25
2023-03-08T07:54:04.104Z,22.87
2023-03-08T07:56:37.077Z,22.17
2023-03-08T07:59:09.852Z,20.82
2023-03-08T08:01:42.591Z,21.30
2023-03-08T08:04:15.317Z,22.10
2023-03-08T08:06:48.790Z,20.88
2023-03-08T08:09:21.295Z,21.37
2023-03-08T08:11:53.882Z,21.33
2023-03-08T08:14:27.402Z,21.17
2023-03-08T08:17:00.032Z,20.37
2023-03-08T08:19:32.620Z,20.72
2023-03-08T08:22:06.222Z,21.65
2023-03-08T08:24:39.068Z,21.42
2023-03-08T08:27:13.706Z,20.57
2023-03-08T08:29:47.878Z,20.08
2023-03-08T08:32:21.649Z,20.57
2023-03-08T08:34:54.567Z,20.35
2023-03-08T08:37:26.942Z,20.60
2023-03-08T08:39:59.601Z,20.45
2023-03-08T08:42:32.242Z,20.48
2023-03-08T08:45:05.164Z,19.82
2023-03-08T08:47:37.939Z,21.12
2023-03-08T08:50:14.073Z,20.08
2023-03-08T08:52:46.134Z,19.15
2023-03-08T08:55:19.520Z,19.12
2023-03-08T08:57:52.028Z,19.75
2023-03-08T09:00:24.736Z,19.32
2023-03-08T09:02:57.690Z,19.77
2023-03-08T09:05:30.272Z,20.90
2023-03-08T09:08:03.662Z,21.10
2023-03-08T09:10:37.612Z,20.77
2023-03-08T09:13:12.791Z,20.05
2023-03-08T09:15:45.173Z,18.05
2023-03-08T09:18:18.274Z,18.52
2023-03-08T09:20:52.152Z,18.32
2023-03-08T09:23:24.962Z,18.10
2023-03-08T09:26:02.413Z,17.25
2023-03-08T09:28:35.978Z,18.32
2023-03-08T09:31:15.175Z,18.10
2023-03-08T09:33:52.316Z,18.42
2023-03-08T09:36:25.068Z,17.98
2023-03-08T09:38:58.088Z,19.00
2023-03-08T09:41:51.736Z,18.67
2023-03-08T09:45:10.381Z,16.75
2023-03-08T09:47:57.673Z,18.70
2023-03-08T09:50:57.732Z,19.80
2023-03-08T09:53:49.332Z,20.52
2023-03-08T09:56:44.640Z,20.30
2023-03-08T09:59:33.814Z,19.90
2023-03-08T10:02:32.405Z,17.37
2023-03-08T10:05:41.492Z,18.17
2023-03-08T10:08:28.223Z,18.35
2023-03-08T10:11:12.216Z,16.95
2023-03-08T10:13:50.665Z,15.05
2023-03-08T10:16:30.318Z,15.10
2023-03-08T10:19:13.110Z,15.35
2023-03-08T10:21:45.862Z,16.27
2023-03-08T10:24:27.242Z,16.45
2023-03-08T10:27:25.297Z,16.80
2023-03-08T10:30:00.190Z,15.80
2023-03-08T10:32:33.330Z,15.20
2023-03-08T10:35:16.961Z,15.00
2023-03-08T10:37:53.129Z,14.98
2023-03-08T10:40:26.525Z,15.15
2023-03-08T10:43:05.704Z,15.55
2023-03-08T10:45:38.868Z,15.65
2023-03-08T10:48:21.279Z,16.52
2023-03-08T10:51:03.059Z,15.58
2023-03-08T10:53:36.018Z,16.17
2023-03-08T10:56:26.496Z,17.05
2023-03-08T10:58:59.016Z,15.18
2023-03-08T11:01:35.149Z,14.68
2023-03-08T11:04:18.766Z,16.07
2023-03-08T11:06:51.278Z,15.43
2023-03-08T11:09:33.593Z,17.48
2023-03-08T11:12:06.391Z,16.80
2023-03-08T11:14:39.042Z,17.10
2023-03-08T11:17:31.341Z,16.42
2023-03-08T11:20:33.093Z,15.68
2023-03-08T11:23:17.184Z,17.02
2023-03-08T11:26:01.040Z,16.23
2023-03-08T11:31:45.272Z,14.30
2023-03-08T11:34:43.769Z,14.43
2023-03-08T11:37:50.553Z,14.50
2023-03-08T11:40:36.219Z,15.23
2023-03-08T11:43:47.602Z,15.55
2023-03-08T11:46:31.612Z,14.30
2023-03-08T11:49:44.170Z,14.15
2023-03-08T11:52:27.190Z,13.93
2023-03-08T11:55:20.919Z,14.13
2023-03-08T11:57:58.702Z,12.93
2023-03-08T12:12:44.045Z,14.65
2023-03-08T12:15:46.456Z,13.90
2023-03-08T12:18:48.227Z,13.68
2023-03-08T12:21:52.828Z,12.68
2023-03-08T12:24:51.055Z,13.50
2023-03-08T12:27:49.404Z,14.20
2023-03-08T12:30:42.468Z,12.50
2023-03-08T12:33:16.437Z,13.62
2023-03-08T12:35:56.690Z,13.03
2023-03-08T12:38:46.071Z,13.38
2023-03-08T12:41:26.497Z,13.70
2023-03-08T12:44:26.838Z,13.05
2023-03-08T12:47:04.328Z,12.18
2023-03-08T12:49:42.245Z,11.88
2023-03-08T12:52:43.479Z,11.68
2023-03-08T12:55:25.895Z,13.38
2023-03-08T12:58:02.826Z,11.93
2023-03-08T13:00:37.944Z,12.23
2023-03-08T13:03:19.220Z,12.25
2023-03-08T13:05:52.429Z,12.45
2023-03-08T13:08:38.540Z,12.75
2023-03-08T13:11:16.955Z,11.53
2023-03-08T13:13:58.795Z,12.10
2023-03-08T13:16:39.917Z,12.30
2023-03-08T13:19:21.109Z,11.97
2023-03-08T13:22:21.027Z,10.95
2023-03-08T13:24:58.207Z,12.03
2023-03-08T13:27:50.775Z,11.00
2023-03-08T13:30:37.701Z,11.73
2023-03-08T13:33:36.634Z,11.75
2023-03-08T13:36:26.081Z,12.33
2023-03-08T13:39:05.897Z,12.98
2023-03-08T13:41:45.937Z,13.13
2023-03-08T13:44:26.832Z,13.25
2023-03-08T13:47:02.972Z,12.75
2023-03-08T13:49:38.240Z,14.07
2023-03-08T13:52:26.524Z,12.53
2023-03-08T13:55:01.713Z,12.82
2023-03-08T13:57:38.072Z,12.20
2023-03-08T14:00:32.687Z,12.37
2023-03-08T14:03:07.844Z,12.30
2023-03-08T14:05:44.193Z,12.40
2023-03-08T14:08:27.944Z,11.93
2023-03-08T14:11:08.416Z,13.47
2023-03-08T14:13:43.420Z,12.28
2023-03-08T14:16:42.228Z,12.68
2023-03-08T14:19:31.265Z,11.63
2023-03-08T14:22:14.404Z,12.60
2023-03-08T14:24:55.465Z,13.30
2023-03-08T14:27:45.509Z,12.90
2023-03-08T14:30:23.319Z,12.73
2023-03-08T14:33:19.522Z,12.28
2023-03-08T14:36:00.472Z,12.35
2023-03-08T14:38:34.482Z,12.65
2023-03-08T14:41:07.113Z,12.90
2023-03-08T14:43:39.808Z,14.55
2023-03-08T14:46:21.774Z,13.68
2023-03-08T14:49:05.213Z,13.90
2023-03-08T14:51:42.957Z,13.22
2023-03-08T14:54:35.023Z,12.20
2023-03-08T14:57:26.009Z,12.80
2023-03-08T15:00:05.030Z,12.40
2023-03-08T15:02:38.239Z,11.85
2023-03-08T15:05:28.095Z,12.40
2023-03-08T15:08:01.436Z,10.75
2023-03-08T15:10:40.688Z,11.20
2023-03-08T15:13:22.590Z,12.33
2023-03-08T15:15:56.184Z,11.75
2023-03-08T15:18:28.775Z,12.73
2023-03-08T15:21:01.487Z,12.63
2023-03-08T15:23:38.008Z,12.70
2023-03-08T15:26:14.278Z,12.53
2023-03-08T15:28:47.526Z,13.20
2023-03-08T15:31:20.416Z,13.58
2023-03-08T15:33:52.800Z,12.40
2023-03-08T15:36:26.955Z,12.15
2023-03-08T15:39:01.053Z,13.85
2023-03-08T15:44:05.730Z,14.25
2023-03-08T15:46:38.858Z,13.15
2023-03-08T15:49:11.668Z,12.78
2023-03-08T15:51:44.493Z,12.55
2023-03-08T15:54:16.977Z,12.00
2023-03-08T15:56:49.643Z,12.05
2023-03-08T15:59:22.084Z,12.65
2023-03-08T16:01:54.997Z,17.77
2023-03-08T16:04:27.732Z,11.88
2023-03-08T16:07:00.475Z,12.45
2023-03-08T16:09:33.359Z,11.78
2023-03-08T16:12:06.962Z,11.73
2023-03-08T16:14:39.847Z,10.95
2023-03-08T16:17:13.023Z,11.53
2023-03-08T16:19:47.077Z,11.45
2023-03-08T16:22:19.875Z,12.68
2023-03-08T16:24:52.428Z,11.78
2023-03-08T16:27:25.073Z,11.45
2023-03-08T16:29:57.742Z,11.43
2023-03-08T16:32:30.384Z,10.70
2023-03-08T16:35:08.091Z,11.20
2023-03-08T16:37:41.554Z,11.45
2023-03-08T16:40:16.652Z,10.88
2023-03-08T16:42:53.415Z,11.85
2023-03-08T16:45:26.043Z,11.10
2023-03-08T16:47:58.345Z,11.50
2023-03-08T16:50:32.611Z,12.23
2023-03-08T16:53:06.941Z,11.38
2023-03-08T16:55:41.132Z,13.18
2023-03-08T16:58:13.857Z,11.38
2023-03-08T17:00:46.296Z,10.82
2023-03-08T17:03:19.495Z,10.35
2023-03-08T17:05:52.328Z,18.75
2023-03-08T17:08:24.849Z,10.95
2023-03-08T17:10:57.420Z,13.28
2023-03-08T17:13:31.040Z,10.78
2023-03-08T17:16:05.685Z,10.15
2023-03-08T17:18:39.162Z,10.32
2023-03-08T17:21:11.508Z,9.78
2023-03-08T17:23:44.584Z,9.40
2023-03-08T17:26:17.480Z,10.85
2023-03-08T17:28:52.473Z,10.30
2023-03-08T17:31:25.297Z,10.78
2023-03-08T17:33:58.208Z,10.93
2023-03-08T17:36:30.872Z,10.85
2023-03-08T17:39:04.540Z,11.10
2023-03-08T17:41:38.809Z,11.63
2023-03-08T17:44:12.243Z,11.97
2023-03-08T17:46:44.710Z,16.10
2023-03-08T17:49:20.298Z,17.90
2023-03-08T17:52:12.579Z,15.28
2023-03-08T17:54:46.154Z,12.43
2023-03-08T17:57:18.939Z,12.13
2023-03-08T17:59:52.339Z,11.65
2023-03-08T18:02:24.684Z,12.78
2023-03-08T18:04:57.170Z,12.78
2023-03-08T18:07:29.868Z,12.85
2023-03-08T18:10:23.766Z,12.93
2023-03-08T18:12:56.942Z,12.60
2023-03-08T18:15:29.913Z,13.80
2023-03-08T18:18:02.996Z,13.78
2023-03-08T18:20:36.994Z,13.83
2023-03-08T18:23:10.314Z,13.85
2023-03-08T18:25:43.495Z,13.83
2023-03-08T18:28:18.438Z,14.87
2023-03-08T18:30:50.914Z,14.35
2023-03-08T18:33:25.260Z,14.70
2023-03-08T18:35:59.019Z,12.43
2023-03-08T18:38:34.348Z,14.13
2023-03-08T18:41:22.840Z,15.75
2023-03-08T18:43:56.565Z,22.40
2023-03-08T18:46:34.725Z,15.93
2023-03-08T18:49:11.480Z,15.53
2023-03-08T18:51:44.386Z,15.93
2023-03-08T18:54:20.225Z,17.40
2023-03-08T18:56:58.129Z,17.10
2023-03-08T18:59:31.748Z,18.55
2023-03-08T19:02:04.505Z,19.37
2023-03-08T19:04:44.212Z,17.40
2023-03-08T19:07:17.290Z,18.40
2023-03-08T19:09:50.445Z,19.42
2023-03-08T19:12:22.921Z,20.35
2023-03-08T19:14:55.957Z,20.68
2023-03-08T19:17:29.762Z,21.07
2023-03-08T19:20:02.548Z,20.85
2023-03-08T19:22:36.047Z,21.25
2023-03-08T19:25:09.785Z,21.57
2023-03-08T19:27:42.451Z,21.02
2023-03-08T19:30:16.020Z,21.23
2023-03-08T19:32:50.392Z,25.25
2023-03-08T19:35:23.199Z,25.97
2023-03-08T19:37:56.326Z,23.60
2023-03-08T19:40:34.473Z,22.32
2023-03-08T19:43:07.652Z,22.87
2023-03-08T19:45:40.956Z,23.70
2023-03-08T19:48:14.245Z,26.25
2023-03-08T19:50:47.945Z,26.82
2023-03-08T19:53:22.210Z,25.82
2023-03-08T19:55:56.027Z,25.62
2023-03-08T19:58:30.357Z,26.95
2023-03-08T20:01:04.940Z,27.07
2023-03-08T20:03:37.872Z,23.92
2023-03-08T20:06:11.198Z,23.45
2023-03-08T20:08:44.876Z,25.00
2023-03-08T20:11:17.253Z,25.35
2023-03-08T20:13:52.184Z,24.12
2023-03-08T20:18:58.983Z,23.87
2023-03-08T20:21:32.355Z,24.37
2023-03-08T20:24:05.516Z,23.85
2023-03-08T20:26:39.161Z,23.22
2023-03-08T20:29:11.921Z,24.07
2023-03-08T20:31:47.469Z,23.98
2023-03-08T20:34:20.567Z,24.12
2023-03-08T20:36:53.682Z,25.80
2023-03-08T20:39:26.465Z,27.05
2023-03-08T20:41:58.986Z,27.48
2023-03-08T20:44:31.808Z,27.65
2023-03-08T20:47:04.512Z,26.42
2023-03-08T20:49:37.728Z,26.02
2023-03-08T20:52:10.499Z,26.27
2023-03-08T20:54:43.500Z,26.30
2023-03-08T20:57:17.201Z,27.75
2023-03-08T20:59:50.360Z,28.57
2023-03-08T21:02:22.891Z,28.87
2023-03-08T21:05:01.151Z,28.30
2023-03-08T21:07:36.171Z,30.40
2023-03-08T21:10:09.961Z,28.57
2023-03-08T21:18:00.406Z,28.52
2023-03-08T21:20:38.303Z,29.10
2023-03-08T21:23:11.205Z,28.55
2023-03-08T21:25:44.044Z,24.77
2023-03-08T21:28:17.354Z,25.82
2023-03-08T21:30:50.805Z,25.75
2023-03-08T21:33:24.442Z,28.07
2023-03-08T21:35:56.832Z,26.02
2023-03-08T21:38:29.410Z,26.62
2023-03-08T21:41:03.102Z,27.05
2023-03-08T21:43:36.666Z,26.27
2023-03-08T21:46:09.724Z,27.00
2023-03-08T21:48:42.609Z,26.93
2023-03-08T21:51:15.237Z,27.62
2023-03-08T21:53:48.457Z,25.68
2023-03-08T21:56:21.453Z,29.25
2023-03-08T21:58:55.137Z,27.40
2023-03-08T22:01:29.876Z,25.68
2023-03-08T22:04:03.004Z,24.45
2023-03-08T22:06:35.864Z,25.17
2023-03-08T22:09:09.972Z,25.43
2023-03-08T22:11:43.624Z,28.00
2023-03-08T22:27:36.184Z,30.62
2023-03-08T22:30:11.661Z,33.55
2023-03-08T22:32:44.202Z,37.17
2023-03-08T22:35:17.011Z,37.93
2023-03-08T22:37:49.903Z,35.38
2023-03-08T22:40:22.442Z,38.75
2023-03-08T22:42:54.826Z,37.88
2023-03-08T22:45:27.124Z,36.60
2023-03-08T22:48:00.789Z,35.40
2023-03-08T22:50:34.184Z,36.73
2023-03-08T22:53:07.801Z,34.08
2023-03-08T22:55:47.748Z,36.35
2023-03-08T22:58:21.365Z,37.95
2023-03-08T23:00:53.924Z,35.65
2023-03-08T23:03:26.591Z,36.05
2023-03-08T23:06:00.554Z,34.95
2023-03-08T23:08:33.346Z,32.53
2023-03-08T23:11:07.005Z,31.25
2023-03-08T23:13:41.585Z,31.35
2023-03-08T23:16:15.896Z,32.85
2023-03-08T23:18:50.993Z,32.42
2023-03-08T23:21:25.280Z,33.53
2023-03-08T23:23:59.532Z,32.25
2023-03-08T23:26:32.909Z,33.78
2023-03-08T23:29:05.719Z,31.40
2023-03-08T23:31:40.738Z,30.90
2023-03-08T23:34:14.350Z,31.33
2023-03-08T23:36:47.006Z,32.03
2023-03-08T23:39:20.170Z,30.97
2023-03-08T23:41:52.673Z,29.72
2023-03-08T23:44:25.553Z,27.32
2023-03-08T23:46:57.975Z,29.48
2023-03-08T23:49:30.841Z,28.80
2023-03-08T23:52:03.516Z,29.18
2023-03-08T23:54:36.522Z,29.85
2023-03-08T23:57:09.219Z,29.65
2023-03-08T23:59:41.862Z,28.83
